createdAt,value
2019-05-21T05:16:47.354Z,60
2019-05-21T05:17:47.479Z,65
2019-05-21T05:18:47.309Z,60
2019-05-21T05:19:47.388Z,65
2019-05-21T05:20:47.267Z,65
2019-05-21T05:21:47.238Z,75
2019-05-21T05:22:47.209Z,65
2019-05-21T05:23:47.282Z,70
2019-05-21T05:24:46.923Z,75
2019-05-21T05:25:47.145Z,65
2019-05-21T05:26:47.116Z,60
2019-05-21T05:27:47.095Z,60
2019-05-21T05:28:47.068Z,50
2019-05-21T05:29:46.802Z,50
2019-05-21T05:30:47.035Z,50
2019-05-21T05:31:46.995Z,45
2019-05-21T05:32:47.672Z,50
2019-05-21T05:33:48.021Z,45
2019-05-21T05:34:46.927Z,45
2019-05-21T05:35:46.902Z,35
2019-05-21T05:36:46.883Z,35
2019-05-21T05:37:56.218Z,35
2019-05-21T05:38:46.837Z,35
2019-05-21T05:39:46.833Z,35
2019-05-21T05:40:46.782Z,35
2019-05-21T05:41:46.756Z,35
2019-05-21T05:42:46.740Z,30
2019-05-21T05:43:46.719Z,35
2019-05-21T05:44:46.704Z,40
2019-05-21T05:45:46.680Z,50
2019-05-21T05:46:46.651Z,50
2019-05-21T05:47:46.679Z,50
2019-05-21T05:48:46.597Z,45
2019-05-21T05:49:46.596Z,50
2019-05-21T05:50:46.628Z,55
2019-05-21T05:51:46.540Z,60
2019-05-21T05:52:46.552Z,60
2019-05-21T05:53:46.498Z,65
2019-05-21T05:54:46.488Z,75
2019-05-21T05:55:46.434Z,80
2019-05-21T05:56:46.198Z,85
2019-05-21T05:57:46.404Z,75
2019-05-21T05:58:46.362Z,95
2019-05-21T05:59:46.347Z,90
2019-05-21T06:00:46.321Z,90
2019-05-21T06:01:46.414Z,80
2019-05-21T06:02:46.301Z,70
2019-05-21T06:03:46.255Z,70
2019-05-21T06:04:46.256Z,75
2019-05-21T06:05:46.222Z,80
2019-05-21T06:06:46.182Z,85
2019-05-21T06:08:01.099Z,90
2019-05-21T06:08:46.144Z,100
2019-05-21T06:09:46.166Z,95
2019-05-21T06:10:49.523Z,100
2019-05-21T06:11:46.075Z,110
2019-05-21T06:12:46.175Z,110
2019-05-21T06:13:46.021Z,110
2019-05-21T06:14:46.112Z,95
2019-05-21T06:15:45.999Z,105
2019-05-21T06:16:45.766Z,105
2019-05-21T06:17:45.922Z,120
2019-05-21T06:18:45.685Z,120
2019-05-21T06:19:45.902Z,110
2019-05-21T06:20:45.885Z,110
2019-05-21T06:21:45.857Z,115
2019-05-21T06:22:45.812Z,110
2019-05-21T06:23:45.792Z,120
2019-05-21T06:24:45.781Z,120
2019-05-21T06:25:45.863Z,120
2019-05-21T06:26:45.725Z,115
2019-05-21T06:27:45.698Z,115
2019-05-21T06:28:45.712Z,115
2019-05-21T06:29:50.429Z,110
2019-05-21T06:30:45.863Z,115
2019-05-21T06:31:45.626Z,120
2019-05-21T06:32:45.369Z,130
2019-05-21T06:33:45.564Z,125
2019-05-21T06:34:48.534Z,180
2019-05-21T06:35:45.569Z,180
2019-05-21T06:36:45.512Z,160
2019-05-21T06:37:45.699Z,145
2019-05-21T06:38:45.260Z,120
2019-05-21T06:39:45.478Z,135
2019-05-21T06:40:47.887Z,125
2019-05-21T06:41:45.437Z,105
2019-05-21T06:42:45.547Z,100
2019-05-21T06:43:45.344Z,110
2019-05-21T06:44:45.325Z,120
2019-05-21T06:45:45.286Z,95
2019-05-21T06:46:45.292Z,115
2019-05-21T06:47:45.252Z,120
2019-05-21T06:48:45.249Z,110
2019-05-21T06:49:45.256Z,115
2019-05-21T06:50:46.956Z,135
2019-05-21T06:51:46.877Z,110
2019-05-21T06:52:45.394Z,125
2019-05-21T06:53:47.506Z,165
2019-05-21T06:54:45.100Z,180
2019-05-21T06:55:44.722Z,215
2019-05-21T06:56:45.081Z,165
2019-05-21T06:57:45.022Z,180
2019-05-21T06:58:44.803Z,210
2019-05-21T06:59:45.647Z,210
2019-05-21T07:00:45.005Z,375
2019-05-21T07:01:44.941Z,455
2019-05-21T07:02:44.911Z,350
2019-05-21T07:03:44.738Z,195
2019-05-21T07:04:44.656Z,170
2019-05-21T07:06:02.074Z,140
2019-05-21T07:06:47.039Z,130
2019-05-21T07:07:44.816Z,145
2019-05-21T07:08:44.675Z,150
2019-05-21T07:09:44.744Z,130
2019-05-21T07:10:44.558Z,195
2019-05-21T07:11:44.735Z,210
2019-05-21T07:12:44.718Z,200
2019-05-21T07:13:44.452Z,205
2019-05-21T07:14:44.642Z,210
2019-05-21T07:15:46.040Z,175
2019-05-21T07:16:44.602Z,250
2019-05-21T07:17:44.696Z,265
2019-05-21T07:18:48.378Z,270
2019-05-21T07:19:44.523Z,290
2019-05-21T07:20:44.557Z,305
2019-05-21T07:21:44.497Z,260
2019-05-21T07:22:44.920Z,350
2019-05-21T07:23:44.488Z,450
2019-05-21T07:24:44.469Z,420
2019-05-21T07:25:44.391Z,385
2019-05-21T07:26:46.773Z,275
2019-05-21T07:27:44.354Z,220
2019-05-21T07:28:44.460Z,220
2019-05-21T07:29:44.295Z,265
2019-05-21T07:30:44.306Z,270
2019-05-21T07:31:44.314Z,240
2019-05-21T07:32:44.809Z,235
2019-05-21T07:33:44.227Z,265
2019-05-21T07:34:44.402Z,225
2019-05-21T07:35:44.199Z,210
2019-05-21T07:36:43.909Z,215
2019-05-21T07:37:44.164Z,240
2019-05-21T07:39:01.612Z,275
2019-05-21T07:39:44.112Z,315
2019-05-21T07:40:44.102Z,240
2019-05-21T07:41:43.827Z,280
2019-05-21T07:42:44.034Z,415
2019-05-21T07:43:44.157Z,445
2019-05-21T07:44:43.976Z,345
2019-05-21T07:45:43.964Z,465
2019-05-21T07:46:46.727Z,470
2019-05-21T07:47:43.907Z,360
2019-05-21T07:48:43.884Z,320
2019-05-21T07:49:43.961Z,345
2019-05-21T07:50:44.251Z,435
2019-05-21T07:51:43.887Z,410
2019-05-21T07:52:43.898Z,375
2019-05-21T07:53:43.792Z,350
2019-05-21T07:54:45.163Z,380
2019-05-21T07:55:44.308Z,320
2019-05-21T07:56:43.737Z,295
2019-05-21T07:57:44.309Z,300
2019-05-21T07:58:45.084Z,305
2019-05-21T07:59:43.614Z,305
2019-05-21T08:00:43.669Z,385
2019-05-21T08:01:43.615Z,365
2019-05-21T08:02:43.357Z,325
2019-05-21T08:03:43.582Z,320
2019-05-21T08:04:43.677Z,270
2019-05-21T08:05:43.520Z,305
2019-05-21T08:06:43.535Z,320
2019-05-21T08:07:43.585Z,280
2019-05-21T08:08:43.451Z,385
2019-05-21T08:09:43.421Z,340
2019-05-21T08:10:43.173Z,385
2019-05-21T08:11:46.508Z,400
2019-05-21T08:12:49.054Z,380
2019-05-21T08:13:43.343Z,350
2019-05-21T08:14:43.270Z,375
2019-05-21T08:15:43.095Z,395
2019-05-21T08:16:43.391Z,410
2019-05-21T08:17:43.313Z,430
2019-05-21T08:18:43.233Z,390
2019-05-21T08:19:43.565Z,390
2019-05-21T08:20:43.198Z,350
2019-05-21T08:21:42.940Z,410
2019-05-21T08:22:43.141Z,380
2019-05-21T08:23:43.434Z,305
2019-05-21T08:24:43.099Z,330
2019-05-21T08:25:43.191Z,375
2019-05-21T08:26:43.068Z,315
2019-05-21T08:27:43.168Z,315
2019-05-21T08:28:42.915Z,310
2019-05-21T08:29:43.129Z,300
2019-05-21T08:30:42.970Z,290
2019-05-21T08:31:42.998Z,245
2019-05-21T08:32:42.958Z,200
2019-05-21T08:33:42.918Z,190
2019-05-21T08:34:42.845Z,210
2019-05-21T08:35:42.987Z,210
2019-05-21T08:36:42.858Z,215
2019-05-21T08:37:42.846Z,205
2019-05-21T08:38:44.501Z,205
2019-05-21T08:39:42.868Z,235
2019-05-21T08:40:42.874Z,245
2019-05-21T08:41:45.311Z,220
2019-05-21T08:42:42.717Z,220
2019-05-21T08:43:42.682Z,235
2019-05-21T08:44:42.828Z,220
2019-05-21T08:45:42.643Z,225
2019-05-21T08:46:42.635Z,245
2019-05-21T08:47:42.592Z,235
2019-05-21T08:48:42.573Z,275
2019-05-21T08:49:46.525Z,265
2019-05-21T08:50:42.535Z,265
2019-05-21T08:51:42.516Z,265
2019-05-21T08:52:42.487Z,270
2019-05-21T08:53:42.515Z,275
2019-05-21T08:54:42.712Z,290
2019-05-21T08:55:42.388Z,295
2019-05-21T08:56:42.597Z,295
2019-05-21T08:57:42.495Z,275
2019-05-21T08:58:42.372Z,295
2019-05-21T08:59:42.561Z,245
2019-05-21T09:00:42.127Z,245
2019-05-21T09:01:42.300Z,320
2019-05-21T09:02:42.399Z,315
2019-05-21T09:03:41.569Z,290
2019-05-21T09:04:55.908Z,325
2019-05-21T09:05:42.219Z,380
2019-05-21T09:06:42.184Z,385
2019-05-21T09:07:42.159Z,315
2019-05-21T09:08:42.249Z,270
2019-05-21T09:09:59.595Z,290
2019-05-21T09:10:42.088Z,305
2019-05-21T09:11:42.085Z,365
2019-05-21T09:12:42.066Z,415
2019-05-21T09:13:42.100Z,345
2019-05-21T09:14:42.092Z,315
2019-05-21T09:15:42.759Z,305
2019-05-21T09:16:41.978Z,375
2019-05-21T09:17:41.954Z,365
2019-05-21T09:18:41.938Z,345
2019-05-21T09:19:45.735Z,470
2019-05-21T09:20:41.894Z,370
2019-05-21T09:21:41.871Z,375
2019-05-21T09:22:41.859Z,405
2019-05-21T09:23:41.588Z,500
2019-05-21T09:24:41.705Z,605
2019-05-21T09:25:41.948Z,560
2019-05-21T09:26:41.755Z,525
2019-05-21T09:27:41.489Z,495
2019-05-21T09:28:41.702Z,485
2019-05-21T09:29:41.700Z,515
2019-05-21T09:30:41.485Z,520
2019-05-21T09:31:41.651Z,560
2019-05-21T09:32:41.861Z,575
2019-05-21T09:33:41.610Z,530
2019-05-21T09:34:57.615Z,490
2019-05-21T09:35:41.637Z,480
2019-05-21T09:36:41.543Z,495
2019-05-21T09:37:41.535Z,430
2019-05-21T09:38:41.518Z,455
2019-05-21T09:39:41.531Z,370
2019-05-21T09:40:41.448Z,400
2019-05-21T09:41:41.480Z,385
2019-05-21T09:42:45.003Z,365
2019-05-21T09:43:42.557Z,325
2019-05-21T09:44:42.373Z,350
2019-05-21T09:45:41.468Z,350
2019-05-21T09:46:41.406Z,345
2019-05-21T09:47:42.160Z,360
2019-05-21T09:48:41.279Z,375
2019-05-21T09:49:41.368Z,375
2019-05-21T09:50:41.259Z,425
2019-05-21T09:51:41.226Z,365
2019-05-21T09:52:41.246Z,365
2019-05-21T09:53:41.299Z,335
2019-05-21T09:54:41.153Z,320
2019-05-21T09:55:43.198Z,300
2019-05-21T09:56:41.109Z,290
2019-05-21T09:57:41.099Z,280
2019-05-21T09:58:41.252Z,295
2019-05-21T09:59:41.075Z,285
2019-05-21T10:00:41.201Z,285
2019-05-21T10:01:41.054Z,275
2019-05-21T10:02:40.986Z,305
2019-05-21T10:03:40.961Z,285
2019-05-21T10:04:41.044Z,305
2019-05-21T10:05:40.942Z,300
2019-05-21T10:06:40.898Z,280
2019-05-21T10:07:49.736Z,280
2019-05-21T10:08:44.329Z,265
2019-05-21T10:09:40.844Z,245
2019-05-21T10:10:40.952Z,255
2019-05-21T10:11:40.799Z,235
2019-05-21T10:12:40.968Z,230
2019-05-21T10:13:40.746Z,260
2019-05-21T10:14:44.388Z,290
2019-05-21T10:15:40.875Z,260
2019-05-21T10:16:40.679Z,260
2019-05-21T10:17:40.837Z,270
2019-05-21T10:18:40.689Z,260
2019-05-21T10:19:40.637Z,255
2019-05-21T10:20:40.361Z,250
2019-05-21T10:21:40.566Z,260
2019-05-21T10:22:40.577Z,245
2019-05-21T10:23:40.565Z,235
2019-05-21T10:24:40.503Z,230
2019-05-21T10:25:40.591Z,220
2019-05-21T10:26:40.461Z,260
2019-05-21T10:27:40.522Z,260
2019-05-21T10:28:40.525Z,265
2019-05-21T10:29:40.399Z,270
2019-05-21T10:30:40.364Z,250
2019-05-21T10:31:40.351Z,250
2019-05-21T10:32:40.371Z,265
2019-05-21T10:33:40.324Z,240
2019-05-21T10:34:40.298Z,240
2019-05-21T10:35:40.263Z,230
2019-05-21T10:36:40.316Z,240
2019-05-21T10:37:53.911Z,250
2019-05-21T10:38:40.236Z,240
2019-05-21T10:39:40.204Z,265
2019-05-21T10:40:40.162Z,240
2019-05-21T10:41:40.168Z,235
2019-05-21T10:42:40.266Z,245
2019-05-21T10:43:40.099Z,240
2019-05-21T10:44:40.155Z,235
2019-05-21T10:45:40.034Z,245
2019-05-21T10:46:40.038Z,240
2019-05-21T10:47:40.010Z,260
2019-05-21T10:48:39.974Z,245
2019-05-21T10:49:39.975Z,270
2019-05-21T10:50:40.096Z,295
2019-05-21T10:51:39.924Z,310
2019-05-21T10:52:39.719Z,345
2019-05-21T10:53:39.877Z,345
2019-05-21T10:54:39.692Z,330
2019-05-21T10:55:39.826Z,325
2019-05-21T10:56:56.102Z,275
2019-05-21T10:57:39.801Z,295
2019-05-21T10:58:39.775Z,290
2019-05-21T10:59:39.720Z,260
2019-05-21T11:00:39.489Z,275
2019-05-21T11:01:39.684Z,245
2019-05-21T11:02:39.708Z,220
2019-05-21T11:03:39.636Z,205
2019-05-21T11:04:39.622Z,230
2019-05-21T11:05:39.620Z,260
2019-05-21T11:06:39.577Z,285
2019-05-21T11:07:39.552Z,330
2019-05-21T11:08:39.531Z,310
2019-05-21T11:09:39.572Z,355
2019-05-21T11:10:39.518Z,280
2019-05-21T11:11:39.481Z,245
2019-05-21T11:12:39.464Z,275
2019-05-21T11:13:39.633Z,315
2019-05-21T11:14:39.414Z,355
2019-05-21T11:15:40.085Z,375
2019-05-21T11:16:39.812Z,395
2019-05-21T11:18:14.740Z,340
2019-05-21T11:18:39.300Z,295
2019-05-21T11:19:39.301Z,295
2019-05-21T11:20:39.271Z,325
2019-05-21T11:21:39.242Z,320
2019-05-21T11:22:39.221Z,300
2019-05-21T11:23:39.496Z,300
2019-05-21T11:24:39.176Z,320
2019-05-21T11:25:39.270Z,350
2019-05-21T11:26:39.151Z,375
2019-05-21T11:27:39.195Z,385
2019-05-21T11:28:39.109Z,375
2019-05-21T11:29:39.131Z,375
2019-05-21T11:30:39.215Z,415
2019-05-21T11:31:54.184Z,460
2019-05-21T11:32:39.038Z,370
2019-05-21T11:33:38.979Z,365
2019-05-21T11:34:38.825Z,365
2019-05-21T11:35:40.992Z,390
2019-05-21T11:36:38.921Z,340
2019-05-21T11:37:38.897Z,295
2019-05-21T11:38:49.251Z,305
2019-05-21T11:39:38.849Z,345
2019-05-21T11:40:38.839Z,355
2019-05-21T11:41:38.821Z,490
2019-05-21T11:42:38.789Z,450
2019-05-21T11:43:38.786Z,420
2019-05-21T11:44:38.941Z,365
2019-05-21T11:45:42.376Z,390
2019-05-21T11:46:38.699Z,440
2019-05-21T11:47:38.707Z,415
2019-05-21T11:48:38.656Z,520
2019-05-21T11:49:38.648Z,575
2019-05-21T11:50:38.424Z,455
2019-05-21T11:51:38.386Z,385
2019-05-21T11:52:38.601Z,395
2019-05-21T11:53:41.379Z,425
2019-05-21T11:54:38.541Z,425
2019-05-21T11:55:39.220Z,440
2019-05-21T11:56:41.695Z,365
2019-05-21T11:57:38.666Z,365
2019-05-21T11:58:44.543Z,360
2019-05-21T11:59:38.421Z,330
2019-05-21T12:00:39.003Z,335
2019-05-21T12:01:38.375Z,345
2019-05-21T12:02:38.207Z,295
2019-05-21T12:03:38.340Z,295
2019-05-21T12:04:38.317Z,335
2019-05-21T12:05:38.302Z,330
2019-05-21T12:06:38.805Z,250
2019-05-21T12:07:38.016Z,240
2019-05-21T12:08:38.252Z,235
2019-05-21T12:09:38.203Z,240
2019-05-21T12:10:38.211Z,240
2019-05-21T12:11:38.171Z,235
2019-05-21T12:12:38.152Z,255
2019-05-21T12:13:38.119Z,275
2019-05-21T12:14:38.173Z,260
2019-05-21T12:15:38.121Z,260
2019-05-21T12:16:37.815Z,280
2019-05-21T12:17:38.038Z,285
2019-05-21T12:18:38.014Z,265
2019-05-21T12:19:38.010Z,270
2019-05-21T12:20:46.589Z,280
2019-05-21T12:21:37.934Z,260
2019-05-21T12:22:37.961Z,260
2019-05-21T12:23:37.908Z,265
2019-05-21T12:24:37.894Z,265
2019-05-21T12:25:37.986Z,255
2019-05-21T12:26:37.855Z,255
2019-05-21T12:27:38.147Z,260
2019-05-21T12:28:39.815Z,245
2019-05-21T12:29:42.472Z,235
2019-05-21T12:30:38.281Z,230
2019-05-21T12:31:39.152Z,235
2019-05-21T12:32:38.763Z,240
2019-05-21T12:33:43.335Z,280
2019-05-21T12:34:41.614Z,290
2019-05-21T12:35:39.065Z,255
2019-05-21T12:36:37.426Z,240
2019-05-21T12:37:37.595Z,225
2019-05-21T12:38:37.589Z,230
2019-05-21T12:39:37.570Z,260
2019-05-21T12:40:37.060Z,255
2019-05-21T12:41:37.385Z,295
2019-05-21T12:42:37.487Z,275
2019-05-21T12:43:37.474Z,275
2019-05-21T12:44:37.226Z,275
2019-05-21T12:45:37.457Z,265
2019-05-21T12:46:37.418Z,260
2019-05-21T12:47:37.387Z,290
2019-05-21T12:48:37.369Z,270
2019-05-21T12:49:37.326Z,275
2019-05-21T12:50:37.322Z,285
2019-05-21T12:51:37.290Z,290
2019-05-21T12:52:40.791Z,385
2019-05-21T12:53:37.184Z,325
2019-05-21T12:54:37.036Z,305
2019-05-21T12:55:37.180Z,305
2019-05-21T12:56:40.532Z,285
2019-05-21T12:57:37.147Z,310
2019-05-21T12:58:36.897Z,370
2019-05-21T12:59:37.091Z,330
2019-05-21T13:00:37.305Z,335
2019-05-21T13:01:37.508Z,375
2019-05-21T13:02:37.592Z,445
2019-05-21T13:03:37.481Z,385
2019-05-21T13:04:37.054Z,430
2019-05-21T13:05:37.397Z,410
2019-05-21T13:06:37.510Z,380
2019-05-21T13:07:37.120Z,440
2019-05-21T13:08:37.274Z,430
2019-05-21T13:09:42.345Z,445
2019-05-21T13:10:36.892Z,475
2019-05-21T13:11:36.861Z,470
2019-05-21T13:12:36.848Z,470
2019-05-21T13:13:36.811Z,475
2019-05-21T13:14:36.841Z,495
2019-05-21T13:15:36.757Z,580
2019-05-21T13:16:36.770Z,665
2019-05-21T13:17:36.705Z,590
2019-05-21T13:18:36.706Z,550
2019-05-21T13:19:36.678Z,515
2019-05-21T13:20:36.935Z,550
2019-05-21T13:21:37.024Z,535
2019-05-21T13:22:37.284Z,480
2019-05-21T13:23:37.067Z,470
2019-05-21T13:24:36.870Z,415
2019-05-21T13:25:36.703Z,420
2019-05-21T13:26:36.839Z,345
2019-05-21T13:27:36.870Z,285
2019-05-21T13:28:38.429Z,320
2019-05-21T13:29:36.574Z,325
2019-05-21T13:30:36.439Z,340
2019-05-21T13:31:36.190Z,385
2019-05-21T13:32:36.397Z,405
2019-05-21T13:33:36.377Z,485
2019-05-21T13:34:36.438Z,545
2019-05-21T13:35:36.385Z,520
2019-05-21T13:36:36.317Z,510
2019-05-21T13:37:36.365Z,540
2019-05-21T13:38:36.271Z,550
2019-05-21T13:39:51.891Z,565
2019-05-21T13:40:36.420Z,575
2019-05-21T13:41:36.250Z,500
2019-05-21T13:42:36.193Z,405
2019-05-21T13:43:35.950Z,425
2019-05-21T13:44:36.157Z,380
2019-05-21T13:45:36.175Z,400
2019-05-21T13:46:38.187Z,355
2019-05-21T13:47:36.426Z,310
2019-05-21T13:48:36.100Z,310
2019-05-21T13:49:35.652Z,360
2019-05-21T13:50:36.022Z,345
2019-05-21T13:51:35.798Z,320
2019-05-21T13:52:36.023Z,360
2019-05-21T13:53:36.025Z,375
2019-05-21T13:54:35.960Z,295
2019-05-21T13:55:38.785Z,325
2019-05-21T13:56:35.905Z,335
2019-05-21T13:57:35.962Z,300
2019-05-21T13:58:35.874Z,275
2019-05-21T13:59:35.805Z,230
2019-05-21T14:00:35.825Z,250
2019-05-21T14:01:50.256Z,295
2019-05-21T14:02:35.771Z,295
2019-05-21T14:03:35.768Z,315
2019-05-21T14:04:35.775Z,325
2019-05-21T14:05:35.703Z,325
2019-05-21T14:06:35.696Z,270
2019-05-21T14:07:35.666Z,270
2019-05-21T14:08:35.764Z,250
2019-05-21T14:09:35.847Z,245
2019-05-21T14:10:35.987Z,235
2019-05-21T14:11:35.584Z,260
2019-05-21T14:12:35.565Z,245
2019-05-21T14:13:35.298Z,245
2019-05-21T14:14:35.513Z,240
2019-05-21T14:15:35.506Z,255
2019-05-21T14:16:39.575Z,265
2019-05-21T14:17:35.439Z,275
2019-05-21T14:18:35.455Z,275
2019-05-21T14:19:35.501Z,270
2019-05-21T14:20:35.377Z,270
2019-05-21T14:21:35.366Z,270
2019-05-21T14:22:38.937Z,295
2019-05-21T14:23:35.327Z,295
2019-05-21T14:24:35.361Z,235
2019-05-21T14:25:36.516Z,195
2019-05-21T14:26:36.275Z,185
2019-05-21T14:27:52.615Z,165
2019-05-21T14:28:39.147Z,185
2019-05-21T14:29:35.184Z,180
2019-05-21T14:30:35.098Z,200
2019-05-21T14:31:35.146Z,190
2019-05-21T14:32:35.155Z,180
2019-05-21T14:33:35.223Z,200
2019-05-21T14:34:35.181Z,180
2019-05-21T14:35:34.839Z,195
2019-05-21T14:36:35.110Z,245
2019-05-21T14:37:35.011Z,240
2019-05-21T14:38:35.009Z,215
2019-05-21T14:39:34.971Z,230
2019-05-21T14:40:41.511Z,205
2019-05-21T14:41:34.952Z,240
2019-05-21T14:42:34.931Z,235
2019-05-21T14:43:34.881Z,265
2019-05-21T14:44:34.963Z,255
2019-05-21T14:45:41.624Z,270
2019-05-21T14:46:34.886Z,255
2019-05-21T14:47:34.800Z,240
2019-05-21T14:48:34.787Z,220
2019-05-21T14:49:34.785Z,215
2019-05-21T14:50:34.779Z,230
2019-05-21T14:51:34.779Z,230
2019-05-21T14:52:34.711Z,225
2019-05-21T14:53:34.661Z,240
2019-05-21T14:54:36.594Z,230
2019-05-21T14:55:34.714Z,210
2019-05-21T14:56:34.384Z,225
2019-05-21T14:57:34.638Z,265
2019-05-21T14:58:34.548Z,280
2019-05-21T14:59:34.566Z,255
2019-05-21T15:00:34.567Z,210
2019-05-21T15:01:34.496Z,235
2019-05-21T15:02:36.991Z,205
2019-05-21T15:03:36.719Z,230
2019-05-21T15:04:35.869Z,250
2019-05-21T15:05:34.173Z,215
2019-05-21T15:06:34.474Z,185
2019-05-21T15:07:34.140Z,180
2019-05-21T15:08:34.362Z,185
2019-05-21T15:09:34.343Z,165
2019-05-21T15:10:50.504Z,170
2019-05-21T15:11:34.281Z,165
2019-05-21T15:12:34.269Z,160
2019-05-21T15:13:34.320Z,165
2019-05-21T15:14:33.846Z,180
2019-05-21T15:15:34.186Z,190
2019-05-21T15:16:34.215Z,210
2019-05-21T15:17:33.927Z,195
2019-05-21T15:18:34.166Z,205
2019-05-21T15:19:34.142Z,190
2019-05-21T15:20:34.141Z,200
2019-05-21T15:21:34.095Z,225
2019-05-21T15:22:34.050Z,185
2019-05-21T15:23:34.043Z,175
2019-05-21T15:24:36.003Z,195
2019-05-21T15:25:33.988Z,200
2019-05-21T15:26:34.013Z,205
2019-05-21T15:27:33.952Z,190
2019-05-21T15:28:33.966Z,175
2019-05-21T15:29:33.886Z,175
2019-05-21T15:30:33.868Z,180
2019-05-21T15:31:33.953Z,170
2019-05-21T15:32:37.040Z,170
2019-05-21T15:33:33.816Z,155
2019-05-21T15:34:33.760Z,150
2019-05-21T15:35:33.832Z,155
2019-05-21T15:36:33.892Z,160
2019-05-21T15:37:33.719Z,160
2019-05-21T15:38:51.365Z,150
2019-05-21T15:39:33.678Z,150
2019-05-21T15:40:34.078Z,160
2019-05-21T15:41:33.633Z,165
2019-05-21T15:42:33.814Z,155
2019-05-21T15:43:33.607Z,135
2019-05-21T15:44:33.578Z,120
2019-05-21T15:45:33.526Z,130
2019-05-21T15:46:53.475Z,130
2019-05-21T15:47:33.491Z,140
2019-05-21T15:48:36.204Z,150
2019-05-21T15:49:45.044Z,145
2019-05-21T15:50:33.433Z,140
2019-05-21T15:51:33.419Z,160
2019-05-21T15:52:33.678Z,160
2019-05-21T15:53:33.824Z,160
2019-05-21T15:54:33.362Z,195
2019-05-21T15:55:33.328Z,225
2019-05-21T15:56:33.299Z,215
2019-05-21T15:57:33.289Z,215
2019-05-21T15:58:36.260Z,265
2019-05-21T15:59:33.231Z,240
2019-05-21T16:00:33.590Z,230
2019-05-21T16:01:33.191Z,220
2019-05-21T16:02:32.943Z,175
2019-05-21T16:03:33.157Z,185
2019-05-21T16:04:33.134Z,170
2019-05-21T16:05:33.160Z,215
2019-05-21T16:06:32.861Z,275
2019-05-21T16:07:33.060Z,215
2019-05-21T16:08:33.185Z,185
2019-05-21T16:09:33.004Z,180
2019-05-21T16:10:33.000Z,175
2019-05-21T16:11:37.882Z,165
2019-05-21T16:12:32.986Z,195
2019-05-21T16:13:32.922Z,240
2019-05-21T16:14:32.443Z,190
2019-05-21T16:15:32.878Z,185
2019-05-21T16:16:32.706Z,200
2019-05-21T16:17:32.849Z,205
2019-05-21T16:18:32.808Z,255
2019-05-21T16:19:32.792Z,210
2019-05-21T16:20:32.835Z,200
2019-05-21T16:21:32.795Z,205
2019-05-21T16:22:32.731Z,215
2019-05-21T16:23:32.710Z,215
2019-05-21T16:24:32.686Z,215
2019-05-21T16:25:32.690Z,205
2019-05-21T16:26:32.733Z,195
2019-05-21T16:27:32.622Z,200
2019-05-21T16:28:32.592Z,275
2019-05-21T16:29:32.572Z,280
2019-05-21T16:30:32.569Z,240
2019-05-21T16:31:32.524Z,185
2019-05-21T16:32:32.508Z,200
2019-05-21T16:33:32.492Z,240
2019-05-21T16:34:36.563Z,185
2019-05-21T16:35:32.435Z,165
2019-05-21T16:36:32.479Z,145
2019-05-21T16:37:32.406Z,140
2019-05-21T16:38:32.383Z,145
2019-05-21T16:39:32.397Z,155
2019-05-21T16:40:32.346Z,180
2019-05-21T16:41:48.914Z,210
2019-05-21T16:42:32.337Z,220
2019-05-21T16:43:32.278Z,210
2019-05-21T16:44:32.421Z,180
2019-05-21T16:45:32.224Z,155
2019-05-21T16:46:32.202Z,130
2019-05-21T16:47:49.341Z,125
2019-05-21T16:48:32.148Z,110
2019-05-21T16:49:32.144Z,100
2019-05-21T16:50:32.107Z,110
2019-05-21T16:51:32.084Z,125
2019-05-21T16:52:32.066Z,135
2019-05-21T16:53:32.048Z,125
2019-05-21T16:54:32.039Z,110
2019-05-21T16:55:31.768Z,145
2019-05-21T16:56:31.988Z,145
2019-05-21T16:57:31.959Z,145
2019-05-21T16:58:31.961Z,160
2019-05-21T16:59:31.923Z,160
2019-05-21T17:00:31.913Z,145
2019-05-21T17:01:31.869Z,115
2019-05-21T17:02:31.847Z,95
2019-05-21T17:03:31.818Z,95
2019-05-21T17:04:31.800Z,90
2019-05-21T17:05:31.794Z,90
2019-05-21T17:06:31.555Z,95
2019-05-21T17:07:31.746Z,90
2019-05-21T17:08:31.711Z,80
2019-05-21T17:09:35.022Z,80
2019-05-21T17:10:31.432Z,90
2019-05-21T17:11:31.657Z,95
2019-05-21T17:12:31.620Z,100
2019-05-21T17:13:31.595Z,100
2019-05-21T17:14:31.596Z,95
2019-05-21T17:15:31.407Z,85
2019-05-21T17:16:31.293Z,85
2019-05-21T17:17:31.508Z,95
2019-05-21T17:18:31.562Z,90
2019-05-21T17:19:31.490Z,75
2019-05-21T17:20:33.976Z,70
2019-05-21T17:21:31.425Z,65
2019-05-21T17:22:31.466Z,65
2019-05-21T17:23:31.381Z,75
2019-05-21T17:24:31.370Z,65
2019-05-21T17:25:31.346Z,70
2019-05-21T17:26:31.311Z,65
2019-05-21T17:27:31.301Z,70
2019-05-21T17:28:31.271Z,75
2019-05-21T17:29:31.249Z,70
2019-05-21T17:30:31.612Z,65
2019-05-21T17:31:32.075Z,60
2019-05-21T17:32:32.648Z,55
2019-05-21T17:33:32.366Z,55
2019-05-21T17:34:31.708Z,60
2019-05-21T17:35:31.868Z,60
2019-05-21T17:36:32.019Z,55
2019-05-21T17:37:32.347Z,60
2019-05-21T17:38:35.062Z,55
2019-05-21T17:39:32.084Z,50
2019-05-21T17:40:31.823Z,55
2019-05-21T17:41:32.119Z,55
2019-05-21T17:42:32.366Z,60
2019-05-21T17:43:31.878Z,70
2019-05-21T17:44:34.244Z,75
2019-05-21T17:45:30.893Z,65
2019-05-21T17:46:30.991Z,80
2019-05-21T17:47:30.828Z,75
2019-05-21T17:48:30.819Z,65
2019-05-21T17:49:30.806Z,60
2019-05-21T17:50:30.843Z,65
2019-05-21T17:51:30.769Z,65
2019-05-21T17:52:30.736Z,55
2019-05-21T17:53:30.630Z,40
2019-05-21T17:54:31.906Z,35
2019-05-21T17:55:30.648Z,40
2019-05-21T17:56:30.647Z,40
2019-05-21T17:57:30.614Z,45
2019-05-21T17:58:30.907Z,40
2019-05-21T17:59:30.336Z,35
2019-05-21T18:00:30.535Z,45
2019-05-21T18:01:30.525Z,45
2019-05-21T18:02:30.493Z,40
2019-05-21T18:03:30.494Z,40
2019-05-21T18:04:30.483Z,40
2019-05-21T18:05:30.184Z,40
2019-05-21T18:06:30.427Z,45
2019-05-21T18:07:30.684Z,50
2019-05-21T18:08:31.734Z,50
2019-05-21T18:09:30.341Z,40
2019-05-21T18:10:30.081Z,40
2019-05-21T18:11:30.294Z,40
2019-05-21T18:12:41.532Z,45
2019-05-21T18:13:30.254Z,40
2019-05-21T18:14:30.238Z,40
2019-05-21T18:15:29.964Z,40
2019-05-21T18:16:29.976Z,45
2019-05-21T18:17:30.154Z,45
2019-05-21T18:18:30.133Z,45
2019-05-21T18:19:30.823Z,45
2019-05-21T18:20:29.850Z,45
2019-05-21T18:21:30.058Z,45
2019-05-21T18:22:30.035Z,40
2019-05-21T18:23:30.016Z,45
2019-05-21T18:24:30.035Z,45
2019-05-21T18:25:29.506Z,40
2019-05-21T18:26:29.942Z,45
2019-05-21T18:27:29.927Z,40
2019-05-21T18:28:29.945Z,35
2019-05-21T18:29:29.901Z,45
2019-05-21T18:30:30.251Z,40
2019-05-21T18:31:29.834Z,35
2019-05-21T18:32:29.573Z,30
2019-05-21T18:33:29.807Z,25
2019-05-21T18:34:29.775Z,25
2019-05-21T18:35:29.819Z,25
2019-05-21T18:36:29.770Z,25
2019-05-21T18:37:29.702Z,25
2019-05-21T18:38:29.687Z,25
2019-05-21T18:39:29.407Z,20
2019-05-21T18:40:29.626Z,20
2019-05-21T18:41:29.603Z,20
2019-05-21T18:42:32.071Z,15
2019-05-21T18:43:29.547Z,15
2019-05-21T18:44:29.534Z,15
2019-05-21T18:45:29.282Z,15
2019-05-21T18:46:29.519Z,15
2019-05-21T18:47:29.461Z,15
2019-05-21T18:48:29.436Z,15
2019-05-21T18:49:32.474Z,10
2019-05-21T18:50:44.452Z,10
2019-05-21T18:51:29.364Z,10
2019-05-21T18:52:29.351Z,10
2019-05-21T18:53:29.319Z,10
2019-05-21T18:54:29.093Z,5
2019-05-21T18:55:29.296Z,5
2019-05-21T18:56:29.267Z,5
2019-05-21T18:57:29.232Z,5
2019-05-21T18:58:29.215Z,5
2019-05-21T18:59:29.187Z,5
2019-05-21T19:00:29.049Z,5
2019-05-21T19:01:29.141Z,5
2019-05-21T19:02:29.119Z,5
2019-05-21T19:03:34.854Z,5
2019-05-21T19:04:29.062Z,5
2019-05-21T19:05:28.806Z,5
2019-05-21T19:06:29.030Z,5
2019-05-21T19:07:29.005Z,5
2019-05-21T19:08:28.970Z,5